Time;durP1;ratioP1;P1;durP2;ratioP2;P2;SDS_P1;SDS_P2;PMS_P1;PMS_P2;Temp;Humidity;BMP_temperature;BMP_pressure;BME280_temperature;BME280_humidity;BME280_pressure;Samples;Min_cycle;Max_cycle;Signal;HPM_P1;HPM_P2
2024/04/12 00:01:14;;;;;;;5.07;3.28;;;15.90;99.90;;;;;;4459638;26;20030;-59
2024/04/12 00:03:17;;;;;;;;;;;16.00;99.90;;;;;;4468992;26;20000;-60
2024/04/12 00:05:20;;;;;;;5.82;2.85;;;16.00;99.90;;;;;;4449602;26;19926;-59
2024/04/12 00:07:22;;;;;;;4.95;3.40;;;16.00;99.90;;;;;;4458078;26;20539;-60
2024/04/12 00:09:23;;;;;;;4.43;3.08;;;15.90;99.90;;;;;;4457954;26;20030;-60
2024/04/12 00:11:23;;;;;;;4.32;3.45;;;15.90;99.90;;;;;;4459539;26;20000;-60
2024/04/12 00:13:26;;;;;;;4.03;2.83;;;15.90;99.90;;;;;;4457868;26;20085;-59
2024/04/12 00:15:29;;;;;;;5.63;2.85;;;15.90;99.90;;;;;;4451090;26;20458;-60
2024/04/12 00:17:31;;;;;;;4.68;3.03;;;15.90;99.90;;;;;;4464448;26;20008;-60
2024/04/12 00:19:33;;;;;;;3.67;3.05;;;15.90;99.90;;;;;;4460248;26;20418;-60
2024/04/12 00:21:37;;;;;;;5.32;3.47;;;16.00;99.90;;;;;;4452482;26;20026;-60
2024/04/12 00:23:39;;;;;;;5.35;3.42;;;16.00;99.90;;;;;;4453551;26;20007;-60
2024/04/12 00:25:40;;;;;;;5.25;2.92;;;15.90;99.90;;;;;;4451764;26;20030;-59
2024/04/12 00:27:41;;;;;;;5.18;3.50;;;16.00;99.90;;;;;;4452531;26;20404;-60
2024/04/12 00:29:46;;;;;;;8.90;4.03;;;15.90;99.90;;;;;;4456485;26;20030;-59
2024/04/12 00:31:46;;;;;;;5.25;3.53;;;15.90;99.90;;;;;;4466405;26;20004;-60
2024/04/12 00:33:48;;;;;;;4.20;3.33;;;15.90;99.90;;;;;;4454822;26;20004;-60
2024/04/12 00:35:54;;;;;;;5.60;3.40;;;15.90;99.90;;;;;;4452775;26;19999;-62
2024/04/12 00:38:00;;;;;;;5.20;3.70;;;15.90;99.90;;;;;;4496195;26;20003;-60
2024/04/12 00:40:00;;;;;;;6.18;3.42;;;15.90;99.90;;;;;;4506783;26;20352;-60
2024/04/12 00:42:08;;;;;;;5.20;3.42;;;15.90;99.90;;;;;;4518767;26;20006;-60
2024/04/12 00:44:08;;;;;;;6.95;3.97;;;15.90;99.90;;;;;;4523227;26;20014;-59
2024/04/12 00:46:09;;;;;;;5.68;3.45;;;15.90;99.90;;;;;;4517664;26;20017;-60
2024/04/12 00:48:10;;;;;;;6.47;3.47;;;15.90;99.90;;;;;;4510284;26;20003;-59
2024/04/12 00:50:15;;;;;;;6.50;4.07;;;15.90;99.90;;;;;;4494398;26;20006;-61
2024/04/12 00:52:22;;;;;;;6.53;3.63;;;15.90;99.90;;;;;;4523574;26;20351;-60
2024/04/12 00:54:23;;;;;;;4.95;3.10;;;15.80;99.90;;;;;;4526893;26;20006;-62
2024/04/12 00:56:28;;;;;;;6.70;3.80;;;15.90;99.90;;;;;;4515126;26;20010;-61
2024/04/12 00:58:32;;;;;;;7.18;3.95;;;15.80;99.90;;;;;;4511964;26;20031;-60
2024/04/12 01:00:36;;;;;;;6.95;3.92;;;15.80;99.90;;;;;;4490844;26;20482;-60
2024/04/12 01:02:39;;;;;;;9.30;4.30;;;15.80;99.90;;;;;;4499115;26;20071;-60
2024/04/12 01:04:39;;;;;;;5.85;3.35;;;15.80;99.90;;;;;;4532991;26;20006;-60
2024/04/12 01:06:43;;;;;;;5.93;3.60;;;15.80;99.90;;;;;;4505316;26;20382;-60
2024/04/12 01:08:44;;;;;;;5.68;3.97;;;15.80;99.90;;;;;;4511786;26;21373;-70
2024/04/12 01:10:46;;;;;;;6.07;3.45;;;15.80;99.90;;;;;;4481349;26;20413;-70
2024/04/12 01:12:46;;;;;;;6.93;4.18;;;15.80;99.90;;;;;;4488724;26;20015;-70
2024/04/12 01:14:48;;;;;;;6.32;3.67;;;15.80;99.90;;;;;;4486532;26;20355;-70
2024/04/12 01:16:54;;;;;;;5.40;3.63;;;15.80;99.90;;;;;;4460848;26;20001;-67
2024/04/12 01:18:55;;;;;;;4.78;3.40;;;15.80;99.90;;;;;;4503614;26;20079;-69
2024/04/12 01:20:56;;;;;;;6.93;4.40;;;15.80;99.90;;;;;;4499652;26;20007;-69
2024/04/12 01:22:58;;;;;;;7.00;3.70;;;15.80;99.90;;;;;;4508343;26;20018;-69
2024/04/12 01:24:58;;;;;;;5.97;4.07;;;15.80;99.90;;;;;;4499533;26;20015;-70
2024/04/12 01:27:04;;;;;;;5.93;4.05;;;15.80;99.90;;;;;;4500636;26;20092;-70
2024/04/12 01:29:05;;;;;;;7.45;4.03;;;15.80;99.90;;;;;;4500999;26;20002;-70
2024/04/12 01:31:05;;;;;;;5.90;3.97;;;15.80;99.90;;;;;;4502515;26;20411;-70
2024/04/12 01:33:08;;;;;;;5.28;3.92;;;15.80;99.90;;;;;;4496667;26;20006;-70
2024/04/12 01:35:11;;;;;;;6.93;4.15;;;15.80;99.90;;;;;;4488377;26;20030;-70
2024/04/12 01:37:15;;;;;;;5.40;3.33;;;15.80;99.90;;;;;;4506580;26;20074;-70
2024/04/12 01:39:16;;;;;;;7.85;4.15;;;15.70;99.90;;;;;;4516732;26;20017;-70
2024/04/12 01:41:20;;;;;;;5.00;3.60;;;15.70;99.90;;;;;;4514226;26;20045;-69
2024/04/12 01:43:22;;;;;;;7.82;3.92;;;15.70;99.90;;;;;;4515818;26;20014;-70
2024/04/12 01:45:26;;;;;;;6.00;3.70;;;15.70;99.90;;;;;;4496104;26;20003;-70
2024/04/12 01:47:34;;;;;;;6.50;3.67;;;15.70;99.90;;;;;;4500144;26;20021;-70
2024/04/12 01:49:43;;;;;;;6.00;3.60;;;15.60;99.90;;;;;;4516489;26;20459;-70
2024/04/12 01:51:47;;;;;;;6.35;3.85;;;15.70;99.90;;;;;;4496257;26;20015;-70
2024/04/12 01:53:54;;;;;;;6.45;4.00;;;15.70;99.90;;;;;;4484198;26;20015;-70
2024/04/12 01:55:55;;;;;;;6.43;4.30;;;15.70;99.90;;;;;;4486209;26;20441;-68
2024/04/12 01:57:58;;;;;;;5.75;3.83;;;15.60;99.90;;;;;;4488931;26;20007;-69
2024/04/12 02:00:01;;;;;;;5.95;4.25;;;15.60;99.90;;;;;;4494487;26;19999;-69
2024/04/12 02:02:04;;;;;;;7.82;4.30;;;15.60;99.90;;;;;;4492957;26;20379;-69
2024/04/12 02:04:07;;;;;;;7.03;4.70;;;15.60;99.90;;;;;;4464163;26;21448;-70
2024/04/12 02:06:08;;;;;;;6.28;4.32;;;15.60;99.90;;;;;;4453857;26;20372;-70
2024/04/12 02:08:16;;;;;;;6.20;4.00;;;15.50;99.90;;;;;;4454182;26;20000;-69
2024/04/12 02:10:22;;;;;;;5.80;3.50;;;15.50;99.90;;;;;;4448128;26;20015;-69
2024/04/12 02:12:23;;;;;;;6.25;4.13;;;15.50;99.90;;;;;;4516053;26;20063;-70
2024/04/12 02:14:23;;;;;;;6.78;4.03;;;15.50;99.90;;;;;;4504089;26;20441;-70
2024/04/12 02:16:24;;;;;;;9.88;4.78;;;15.50;99.90;;;;;;4456539;26;20022;-68
2024/04/12 02:18:25;;;;;;;7.03;4.10;;;15.50;99.90;;;;;;4464181;26;20004;-66
2024/04/12 02:20:36;;;;;;;7.22;4.65;;;15.50;99.90;;;;;;4448741;26;20014;-66
2024/04/12 02:22:37;;;;;;;8.50;4.00;;;15.40;99.90;;;;;;4456266;26;20475;-65
2024/04/12 02:24:40;;;;;;;6.47;3.88;;;15.50;99.90;;;;;;4469188;26;20008;-65
2024/04/12 02:26:42;;;;;;;8.27;4.30;;;15.40;99.90;;;;;;4464606;26;20344;-65
2024/04/12 02:28:43;;;;;;;5.50;4.00;;;15.40;99.90;;;;;;4454804;26;20007;-65
2024/04/12 02:30:53;;;;;;;7.60;4.28;;;15.40;99.90;;;;;;4454229;26;20011;-65
2024/04/12 02:32:53;;;;;;;9.65;4.30;;;15.40;99.90;;;;;;4457744;26;20054;-65
2024/04/12 02:34:54;;;;;;;6.10;4.03;;;15.40;99.90;;;;;;4448983;26;20016;-66
2024/04/12 02:37:01;;;;;;;8.70;4.50;;;15.40;99.90;;;;;;4454303;26;20018;-65
2024/04/12 02:39:06;;;;;;;6.15;3.88;;;15.30;99.90;;;;;;4451762;26;20118;-65
2024/04/12 02:41:14;;;;;;;6.47;4.25;;;15.30;99.90;;;;;;4451437;26;20008;-65
2024/04/12 02:43:16;;;;;;;6.63;3.97;;;15.40;99.90;;;;;;4459907;26;20017;-65
2024/04/12 02:45:16;;;;;;;7.90;3.90;;;15.30;99.90;;;;;;4467529;26;20483;-65
2024/04/12 02:47:18;;;;;;;7.78;4.00;;;15.30;99.90;;;;;;4464528;26;20455;-65
2024/04/12 02:49:19;;;;;;;5.75;3.80;;;15.40;99.90;;;;;;4461045;26;20012;-65
2024/04/12 02:51:22;;;;;;;5.63;3.40;;;15.30;99.90;;;;;;4459675;26;20008;-65
2024/04/12 02:53:32;;;;;;;;;;;15.30;99.90;;;;;;4452812;26;20008;-66
2024/04/12 02:55:32;;;;;;;6.47;3.58;;;15.40;99.90;;;;;;4454664;26;19932;-65
2024/04/12 02:57:33;;;;;;;5.78;3.70;;;15.40;99.90;;;;;;4459564;26;20004;-66
2024/04/12 02:59:34;;;;;;;5.28;3.47;;;15.40;99.90;;;;;;4449418;26;20008;-65
2024/04/12 03:01:36;;;;;;;5.25;3.50;;;15.40;99.90;;;;;;4458318;26;20436;-65
2024/04/12 03:03:45;;;;;;;11.52;3.72;;;15.40;99.90;;;;;;4456316;26;20423;-65
2024/04/12 03:05:45;;;;;;;10.43;4.18;;;15.40;99.90;;;;;;4459427;26;20011;-65
2024/04/12 03:07:46;;;;;;;5.80;3.53;;;15.30;99.90;;;;;;4455383;26;20004;-65
2024/04/12 03:09:53;;;;;;;4.95;3.42;;;15.40;99.90;;;;;;4460853;26;20032;-65
2024/04/12 03:11:54;;;;;;;5.57;3.55;;;15.40;99.90;;;;;;4451350;26;20138;-66
2024/04/12 03:14:09;;;;;;;4.38;3.25;;;15.40;99.90;;;;;;4463839;26;20514;-66
2024/04/12 03:16:13;;;;;;;5.40;3.90;;;15.40;99.90;;;;;;4461273;26;20008;-65
2024/04/12 03:18:15;;;;;;;7.75;4.18;;;15.40;99.90;;;;;;4459836;26;20383;-65
2024/04/12 03:20:18;;;;;;;4.97;3.77;;;15.40;99.90;;;;;;4457641;26;20008;-66
2024/04/12 03:22:20;;;;;;;4.82;3.60;;;15.40;99.90;;;;;;4466921;26;20272;-65
2024/04/12 03:24:21;;;;;;;5.97;3.90;;;15.40;99.90;;;;;;4467785;26;20534;-65
2024/04/12 03:26:22;;;;;;;5.15;3.50;;;15.40;99.90;;;;;;4462397;26;20040;-65
2024/04/12 03:28:23;;;;;;;4.63;3.50;;;15.40;99.90;;;;;;4471616;26;20054;-65
2024/04/12 03:30:25;;;;;;;7.28;4.00;;;15.30;99.90;;;;;;4457799;26;20062;-65
2024/04/12 03:32:32;;;;;;;;;;;15.40;99.90;;;;;;4455111;26;20441;-65
2024/04/12 03:34:35;;;;;;;5.10;3.38;;;15.30;99.90;;;;;;4448526;26;19933;-65
2024/04/12 03:38:38;;;;;;;4.18;3.40;;;15.40;99.90;;;;;;4449878;26;20012;-66
2024/04/12 03:40:38;;;;;;;5.22;3.65;;;15.30;99.90;;;;;;4461498;26;20035;-65
2024/04/12 03:42:41;;;;;;;4.80;3.25;;;15.30;99.90;;;;;;4465343;26;20040;-66
2024/04/12 03:44:42;;;;;;;;;;;15.30;99.90;;;;;;4468773;26;20000;-65
2024/04/12 03:46:44;;;;;;;3.70;2.95;;;15.40;99.90;;;;;;4455121;26;19925;-66
2024/04/12 03:48:45;;;;;;;6.32;4.47;;;15.40;99.90;;;;;;4457922;26;22319;-66
2024/04/12 03:50:48;;;;;;;6.43;4.28;;;15.30;99.90;;;;;;4460754;26;20095;-65
2024/04/12 03:52:49;;;;;;;5.70;3.90;;;15.30;99.90;;;;;;4458820;26;20085;-65
2024/04/12 03:55:08;;;;;;;4.50;3.35;;;15.30;99.90;;;;;;4459805;26;20023;-65
2024/04/12 03:57:09;;;;;;;5.22;3.65;;;15.30;99.90;;;;;;4454157;26;20561;-65
2024/04/12 03:59:10;;;;;;;6.10;3.55;;;15.30;99.90;;;;;;4460560;26;20015;-65
2024/04/12 04:01:12;;;;;;;4.78;3.58;;;15.20;99.90;;;;;;4458403;26;20483;-66
2024/04/12 04:03:30;;;;;;;5.22;3.47;;;15.30;99.90;;;;;;4455934;26;20387;-66
2024/04/12 04:05:32;;;;;;;7.45;3.97;;;15.20;99.90;;;;;;4452891;26;20012;-65
2024/04/12 04:07:38;;;;;;;6.13;4.20;;;15.30;99.90;;;;;;4457509;26;20023;-65
2024/04/12 04:09:38;;;;;;;4.20;3.42;;;15.20;99.90;;;;;;4459865;26;20055;-65
2024/04/12 04:11:42;;;;;;;6.53;4.22;;;15.30;99.90;;;;;;4464319;26;20000;-65
2024/04/12 04:13:47;;;;;;;5.10;3.63;;;15.30;99.90;;;;;;4457300;26;20450;-65
2024/04/12 04:15:50;;;;;;;6.10;3.70;;;15.20;99.90;;;;;;4458795;26;20400;-65
2024/04/12 04:17:53;;;;;;;6.78;4.15;;;15.30;99.90;;;;;;4464517;26;20035;-66
2024/04/12 04:19:54;;;;;;;5.15;3.83;;;15.20;99.90;;;;;;4461265;26;20008;-65
2024/04/12 04:21:56;;;;;;;6.05;4.28;;;15.20;99.90;;;;;;4464047;26;20471;-66
2024/04/12 04:23:58;;;;;;;5.85;4.20;;;15.20;99.90;;;;;;4458486;26;20003;-67
2024/04/12 04:25:59;;;;;;;5.30;3.83;;;15.20;99.90;;;;;;4453223;26;20012;-66
2024/04/12 04:27:59;;;;;;;5.63;3.80;;;15.20;99.90;;;;;;4455800;26;20709;-66
2024/04/12 04:30:00;;;;;;;5.50;3.30;;;15.20;99.90;;;;;;4450359;26;20064;-66
2024/04/12 04:32:03;;;;;;;5.68;3.55;;;15.20;99.90;;;;;;4451937;26;20008;-65
2024/04/12 04:34:05;;;;;;;;;;;15.10;99.90;;;;;;4467050;26;20459;-66
2024/04/12 04:36:11;;;;;;;6.05;3.42;;;15.20;99.90;;;;;;4453346;26;20269;-66
2024/04/12 04:38:14;;;;;;;4.93;4.03;;;15.10;99.90;;;;;;4456887;26;20092;-68
2024/04/12 04:40:18;;;;;;;;;;;15.10;99.90;;;;;;4456237;26;20015;-72
2024/04/12 04:42:18;;;;;;;6.90;3.92;;;15.20;99.90;;;;;;4468512;26;19925;-72
2024/04/12 04:44:21;;;;;;;5.53;3.67;;;15.10;99.90;;;;;;4460466;26;20467;-72
2024/04/12 04:46:28;;;;;;;5.40;3.88;;;15.20;99.90;;;;;;4451432;26;20000;-72
2024/04/12 04:48:28;;;;;;;4.95;3.50;;;15.20;99.90;;;;;;4456673;26;20552;-72
2024/04/12 04:50:29;;;;;;;4.72;3.38;;;15.10;99.90;;;;;;4459281;26;20007;-72
2024/04/12 04:52:37;;;;;;;5.82;3.90;;;15.20;99.90;;;;;;4454619;26;20353;-72
2024/04/12 04:54:39;;;;;;;5.55;4.22;;;15.10;99.90;;;;;;4451755;26;20004;-72
2024/04/12 04:56:40;;;;;;;5.22;3.80;;;15.10;99.90;;;;;;4460237;26;20012;-72
2024/04/12 04:58:44;;;;;;;5.50;3.70;;;15.10;99.90;;;;;;4455219;26;20032;-72
2024/04/12 05:00:49;;;;;;;4.78;3.47;;;15.10;99.90;;;;;;4447296;26;20004;-72
2024/04/12 05:02:50;;;;;;;4.55;3.53;;;15.10;99.90;;;;;;4459137;26;20000;-72
2024/04/12 05:04:51;;;;;;;6.45;3.90;;;15.10;99.90;;;;;;4455684;26;20514;-72
2024/04/12 05:06:55;;;;;;;5.40;3.80;;;15.10;99.90;;;;;;4452463;26;20340;-72
2024/04/12 05:09:00;;;;;;;6.18;4.03;;;15.00;99.90;;;;;;4448198;26;20004;-65
2024/04/12 05:11:05;;;;;;;4.32;3.70;;;15.10;99.90;;;;;;4458402;26;20008;-71
2024/04/12 05:13:06;;;;;;;5.38;3.60;;;15.10;99.90;;;;;;4457109;26;20538;-72
2024/04/12 05:15:52;;;;;;;6.53;4.20;;;15.00;99.90;;;;;;4461717;26;20363;-71
2024/04/12 05:17:29;;;;;;;5.70;4.07;;;15.00;99.90;;;;;;4464758;26;20022;-70
2024/04/12 05:19:39;;;;;;;7.50;4.55;;;15.00;99.90;;;;;;4459280;26;20469;-72
2024/04/12 05:21:45;;;;;;;4.38;3.30;;;15.00;99.90;;;;;;4444701;26;20016;-72
2024/04/12 05:23:51;;;;;;;6.20;4.22;;;15.00;99.90;;;;;;4451778;26;20014;-72
2024/04/12 05:25:54;;;;;;;6.30;3.85;;;15.00;99.90;;;;;;4455042;26;20011;-71
2024/04/12 05:27:54;;;;;;;;;;;15.00;99.90;;;;;;4450739;26;20387;-72
2024/04/12 05:29:55;;;;;;;5.40;3.72;;;15.00;99.90;;;;;;4444918;26;19933;-71
2024/04/12 05:31:58;;;;;;;6.30;4.78;;;15.00;99.90;;;;;;4456592;26;20005;-71
2024/04/12 05:34:01;;;;;;;7.78;4.75;;;15.00;99.90;;;;;;4479537;26;20487;-71
2024/04/12 05:36:02;;;;;;;6.13;4.65;;;15.00;99.90;;;;;;4449517;26;20053;-72
2024/04/12 05:38:08;;;;;;;6.57;4.10;;;15.00;99.90;;;;;;4448156;26;20007;-71
2024/04/12 05:40:12;;;;;;;5.93;4.45;;;15.00;99.90;;;;;;4449581;26;20087;-71
2024/04/12 05:42:15;;;;;;;6.15;4.45;;;15.00;99.90;;;;;;4455696;26;20344;-71
2024/04/12 05:44:18;;;;;;;7.18;5.07;;;15.00;99.90;;;;;;4447018;26;20464;-72
2024/04/12 05:46:22;;;;;;;6.90;5.10;;;15.00;99.90;;;;;;4474395;26;20000;-71
2024/04/12 05:48:23;;;;;;;7.07;4.18;;;15.00;99.90;;;;;;4476571;26;20021;-74
2024/04/12 05:50:25;;;;;;;6.55;4.40;;;15.00;99.90;;;;;;4478023;26;20006;-74
2024/04/12 05:52:29;;;;;;;6.22;4.25;;;15.10;99.90;;;;;;4477016;26;20008;-74
2024/04/12 05:54:44;;;;;;;6.40;4.30;;;15.00;99.90;;;;;;4485107;26;20174;-73
2024/04/12 05:56:51;;;;;;;8.43;5.00;;;15.10;99.90;;;;;;4444621;26;20019;-74
2024/04/12 05:58:51;;;;;;;6.22;4.57;;;15.10;99.90;;;;;;4449516;26;20348;-74
2024/04/12 06:00:56;;;;;;;9.07;5.95;;;15.10;99.90;;;;;;4458370;26;20019;-74
2024/04/12 06:02:56;;;;;;;7.82;5.47;;;15.10;99.90;;;;;;4428532;26;20056;-74
2024/04/12 06:04:59;;;;;;;6.40;5.13;;;15.10;99.90;;;;;;4460247;26;20014;-74
2024/04/12 06:07:07;;;;;;;8.15;5.10;;;15.00;99.90;;;;;;4480303;26;20427;-73
2024/04/12 06:09:15;;;;;;;8.93;5.60;;;15.10;99.90;;;;;;4485629;26;20015;-73
2024/04/12 06:11:16;;;;;;;6.50;4.95;;;15.10;99.90;;;;;;4476955;26;20026;-74
2024/04/12 06:13:20;;;;;;;8.13;5.32;;;15.10;99.90;;;;;;4483240;26;20011;-74
2024/04/12 06:15:21;;;;;;;6.93;4.88;;;15.10;99.90;;;;;;4448476;26;20052;-74
2024/04/12 06:17:23;;;;;;;7.20;5.20;;;15.10;99.90;;;;;;4455228;26;20019;-74
2024/04/12 06:19:24;;;;;;;8.63;5.60;;;15.10;99.90;;;;;;4462235;26;20008;-74
2024/04/12 06:21:24;;;;;;;6.30;4.75;;;15.10;99.90;;;;;;4449710;26;20030;-74
2024/04/12 06:23:26;;;;;;;5.93;4.85;;;15.10;99.90;;;;;;4455690;26;20004;-74
2024/04/12 06:25:28;;;;;;;7.07;5.18;;;15.10;99.90;;;;;;4454809;26;20351;-74
2024/04/12 06:27:33;;;;;;;7.85;5.18;;;15.20;99.90;;;;;;4445272;26;20004;-73
2024/04/12 06:29:34;;;;;;;7.43;5.40;;;15.20;99.90;;;;;;4447146;26;20378;-73
2024/04/12 06:31:35;;;;;;;7.38;5.38;;;15.20;99.90;;;;;;4452632;26;20000;-74
2024/04/12 06:33:35;;;;;;;7.13;5.30;;;15.20;99.90;;;;;;4459103;26;20110;-74
2024/04/12 06:35:36;;;;;;;7.07;4.72;;;15.20;99.90;;;;;;4449706;26;20446;-74
2024/04/12 06:37:37;;;;;;;8.15;5.45;;;15.20;99.90;;;;;;4451805;26;20028;-73
2024/04/12 06:39:40;;;;;;;9.02;5.45;;;15.20;99.90;;;;;;4450909;26;20004;-74
2024/04/12 06:41:45;;;;;;;5.95;4.60;;;15.20;99.90;;;;;;4449568;26;20342;-74
2024/04/12 06:43:46;;;;;;;6.28;5.00;;;15.30;99.90;;;;;;4451399;26;20018;-74
2024/04/12 06:46:00;;;;;;;9.25;5.57;;;15.20;99.90;;;;;;4450946;26;20371;-74
2024/04/12 06:48:03;;;;;;;9.90;5.45;;;15.20;99.90;;;;;;4456830;26;20031;-73
2024/04/12 06:50:08;;;;;;;8.93;5.70;;;15.20;99.90;;;;;;4474951;26;20440;-75
2024/04/12 06:52:12;;;;;;;9.52;5.82;;;15.20;99.90;;;;;;4476788;26;20016;-74
2024/04/12 06:54:12;;;;;;;8.65;5.35;;;15.20;99.90;;;;;;4481773;26;20468;-73
2024/04/12 06:56:15;;;;;;;8.93;5.40;;;15.30;99.90;;;;;;4476191;26;20010;-74
2024/04/12 06:58:17;;;;;;;6.13;4.45;;;15.30;99.90;;;;;;4478620;26;20030;-74
2024/04/12 07:00:20;;;;;;;8.25;5.10;;;15.30;99.90;;;;;;4477559;26;20027;-74
2024/04/12 07:02:23;;;;;;;7.20;4.95;;;15.40;99.90;;;;;;4480607;26;20521;-74
2024/04/12 07:04:24;;;;;;;7.88;5.22;;;15.40;99.90;;;;;;4484727;26;20063;-74
2024/04/12 07:06:25;;;;;;;10.05;6.03;;;15.50;99.90;;;;;;4476950;26;20450;-73
2024/04/12 07:08:26;;;;;;;9.48;5.70;;;15.40;99.90;;;;;;4482964;26;19999;-74
2024/04/12 07:10:27;;;;;;;8.80;5.03;;;15.50;99.90;;;;;;4458127;26;20658;-73
2024/04/12 07:12:31;;;;;;;6.80;5.05;;;15.50;99.90;;;;;;4479229;26;20041;-73
2024/04/12 07:14:41;;;;;;;6.32;4.90;;;15.50;99.90;;;;;;4478425;26;21013;-74
2024/04/12 07:16:42;;;;;;;8.10;5.10;;;15.60;99.90;;;;;;4477271;26;20002;-74
2024/04/12 07:18:43;;;;;;;7.38;4.80;;;15.60;99.90;;;;;;4477401;26;20025;-74
2024/04/12 07:20:48;;;;;;;5.80;4.35;;;15.60;99.90;;;;;;4479214;26;20011;-74
2024/04/12 07:22:51;;;;;;;7.70;4.97;;;15.60;99.90;;;;;;4480116;26;20022;-74
2024/04/12 07:24:53;;;;;;;10.27;4.68;;;15.70;99.90;;;;;;4479046;26;20023;-74
2024/04/12 07:26:56;;;;;;;10.82;4.90;;;15.70;99.90;;;;;;4476984;26;20071;-73
2024/04/12 07:28:59;;;;;;;8.13;5.45;;;15.70;99.90;;;;;;4480336;26;20004;-74
2024/04/12 07:31:04;;;;;;;7.65;4.60;;;15.80;99.90;;;;;;4479985;26;20456;-73
2024/04/12 07:33:05;;;;;;;7.50;4.22;;;15.80;99.90;;;;;;4489476;26;20081;-73
2024/04/12 07:37:30;;;;;;;7.50;4.60;;;15.90;99.90;;;;;;4486598;26;20015;-74
2024/04/12 07:39:31;;;;;;;9.07;5.32;;;15.90;99.90;;;;;;4485368;26;20026;-74
2024/04/12 07:41:42;;;;;;;6.25;4.63;;;15.90;99.90;;;;;;4480275;26;20003;-74
2024/04/12 07:43:43;;;;;;;7.35;4.80;;;15.90;99.90;;;;;;4482472;26;20343;-73
2024/04/12 07:45:43;;;;;;;14.93;5.75;;;16.00;99.90;;;;;;4483542;26;20011;-73
2024/04/12 07:47:54;;;;;;;9.75;5.82;;;16.00;99.90;;;;;;4483497;26;20081;-73
2024/04/12 07:49:54;;;;;;;9.73;4.97;;;16.00;99.90;;;;;;4476643;26;20073;-74
2024/04/12 07:51:55;;;;;;;7.40;4.97;;;16.00;99.90;;;;;;4476495;26;20378;-73
2024/04/12 07:53:55;;;;;;;8.05;5.18;;;16.00;99.90;;;;;;4485920;26;19999;-73
2024/04/12 07:56:14;;;;;;;11.93;5.40;;;16.10;99.90;;;;;;4461550;26;20016;-74
2024/04/12 07:58:14;;;;;;;6.70;4.70;;;16.10;99.90;;;;;;4486901;26;20000;-73
2024/04/12 08:00:25;;;;;;;9.73;5.55;;;16.10;99.90;;;;;;4486630;26;20007;-73
2024/04/12 08:02:30;;;;;;;8.35;4.63;;;16.20;99.90;;;;;;4487668;26;20087;-73
2024/04/12 08:04:37;;;;;;;5.85;4.25;;;16.20;99.90;;;;;;4483415;26;20014;-73
2024/04/12 08:09:03;;;;;;;8.43;4.78;;;16.20;99.90;;;;;;4488885;26;20034;-64
2024/04/12 08:11:32;;;;;;;7.05;4.45;;;16.30;99.90;;;;;;4479661;26;20008;-65
2024/04/12 08:13:37;;;;;;;8.88;5.10;;;16.30;99.90;;;;;;4498418;26;20336;-65
2024/04/12 08:15:41;;;;;;;7.43;4.78;;;16.30;99.90;;;;;;4484523;26;20451;-65
2024/04/12 08:17:48;;;;;;;7.50;4.85;;;16.30;99.90;;;;;;4493888;26;20080;-60
2024/04/12 08:20:13;;;;;;;8.35;4.35;;;16.40;99.90;;;;;;4510638;26;20014;-59
2024/04/12 08:22:18;;;;;;;9.35;4.97;;;16.40;99.90;;;;;;4476530;26;20039;-59
2024/04/12 08:24:24;;;;;;;9.02;4.93;;;16.50;99.90;;;;;;4478701;26;20003;-60
2024/04/12 08:26:27;;;;;;;8.10;4.85;;;16.50;99.90;;;;;;4499646;26;20002;-59
2024/04/12 08:28:27;;;;;;;8.38;5.22;;;16.50;99.90;;;;;;4464997;26;20000;-59
2024/04/12 08:30:28;;;;;;;8.10;4.50;;;16.50;99.90;;;;;;4492332;26;20018;-59
2024/04/12 08:32:31;;;;;;;8.38;4.75;;;16.60;99.90;;;;;;4509077;26;20056;-59
2024/04/12 08:34:33;;;;;;;8.93;4.75;;;16.60;99.90;;;;;;4482183;26;20011;-59
2024/04/12 08:36:34;;;;;;;8.23;4.30;;;16.60;99.90;;;;;;4487351;26;19996;-59
2024/04/12 08:38:35;;;;;;;6.85;4.55;;;16.70;99.90;;;;;;4478385;26;20265;-60
2024/04/12 08:40:37;;;;;;;8.18;4.13;;;16.60;99.90;;;;;;4477265;26;20004;-59
2024/04/12 08:42:39;;;;;;;10.70;5.03;;;16.70;99.90;;;;;;4492009;26;20511;-61
2024/04/12 08:44:40;;;;;;;6.13;4.18;;;16.70;99.90;;;;;;4508984;26;20451;-59
2024/04/12 08:46:43;;;;;;;6.22;3.67;;;16.80;99.90;;;;;;4493305;26;20381;-59
2024/04/12 08:48:46;;;;;;;;;;;16.80;99.90;;;;;;4487061;26;20015;-59
2024/04/12 08:50:50;;;;;;;10.30;4.13;;;16.80;99.90;;;;;;4507804;26;20384;-59
2024/04/12 08:52:53;;;;;;;6.28;4.00;;;16.80;99.90;;;;;;4499360;26;19999;-59
2024/04/12 08:54:56;;;;;;;7.35;4.32;;;16.80;99.90;;;;;;4497119;26;20357;-59
2024/04/12 08:57:00;;;;;;;8.38;4.15;;;16.90;99.90;;;;;;4478592;26;20360;-59
2024/04/12 08:59:05;;;;;;;6.35;4.15;;;16.90;99.90;;;;;;4479366;26;20007;-60
2024/04/12 09:01:06;;;;;;;6.05;3.63;;;16.90;99.90;;;;;;4477928;26;20331;-59
2024/04/12 09:03:24;;;;;;;8.70;4.47;;;17.00;99.90;;;;;;4498703;26;20003;-60
2024/04/12 09:05:26;;;;;;;6.53;3.90;;;17.00;99.90;;;;;;4479147;26;20150;-59
2024/04/12 09:07:27;;;;;;;8.98;4.13;;;17.00;99.90;;;;;;4468708;26;20019;-59
2024/04/12 09:09:28;;;;;;;6.78;3.55;;;17.00;99.90;;;;;;4456816;26;20003;-59
2024/04/12 09:11:32;;;;;;;6.72;4.13;;;17.00;99.90;;;;;;4479078;26;20075;-59
2024/04/12 09:13:34;;;;;;;8.55;3.88;;;17.00;99.90;;;;;;4475069;26;20004;-60
2024/04/12 09:15:35;;;;;;;;;;;17.10;99.90;;;;;;4470429;26;20108;-59
2024/04/12 09:17:36;;;;;;;9.23;3.50;;;17.10;99.90;;;;;;4477149;26;20339;-64
2024/04/12 09:19:38;;;;;;;8.65;3.20;;;17.10;99.90;;;;;;4461304;26;20077;-73
2024/04/12 09:21:47;;;;;;;7.25;3.95;;;17.10;99.90;;;;;;4453456;26;20004;-66
2024/04/12 09:23:50;;;;;;;9.95;4.95;;;17.20;99.90;;;;;;4464092;26;20499;-73
2024/04/12 09:25:54;;;;;;;;;;;17.20;99.90;;;;;;4452696;26;20017;-73
2024/04/12 09:27:57;;;;;;;5.03;3.33;;;17.20;99.90;;;;;;4457793;26;19999;-73
2024/04/12 09:31:56;;;;;;;6.63;4.20;;;17.20;99.90;;;;;;4464490;26;20022;-73
2024/04/12 09:34:39;;;;;;;4.18;3.10;;;17.20;99.90;;;;;;4493808;26;20013;-74
2024/04/12 09:37:02;;;;;;;5.88;3.55;;;17.30;99.90;;;;;;4501928;26;20401;-71
2024/04/12 09:39:13;;;;;;;6.72;4.05;;;17.30;99.90;;;;;;4497585;26;20061;-73
2024/04/12 09:41:31;;;;;;;6.50;3.97;;;17.30;99.90;;;;;;4484900;26;20031;-73
2024/04/12 09:43:36;;;;;;;7.07;3.53;;;17.30;99.90;;;;;;4481224;26;20007;-72
2024/04/12 09:45:53;;;;;;;3.88;3.20;;;17.30;99.90;;;;;;4496790;26;20336;-73
2024/04/12 10:37:59;;;;;;;5.95;2.75;;;18.00;99.90;;;;;;4468724;26;20177;-64
2024/04/12 10:40:04;;;;;;;5.63;3.15;;;18.10;99.90;;;;;;4482066;26;20011;-64
2024/04/12 10:42:05;;;;;;;5.43;2.97;;;18.20;99.90;;;;;;4478480;26;20046;-64
2024/04/12 10:44:06;;;;;;;7.18;2.95;;;18.30;99.90;;;;;;4479561;26;19999;-64
2024/04/12 10:46:10;;;;;;;5.90;2.83;;;18.30;99.90;;;;;;4482280;26;20018;-64
2024/04/12 10:48:14;;;;;;;5.78;2.80;;;18.40;99.90;;;;;;4481593;26;20010;-63
2024/04/12 10:50:15;;;;;;;5.18;3.25;;;18.50;99.90;;;;;;4477680;26;20459;-64
2024/04/12 10:52:19;;;;;;;6.25;3.28;;;18.50;99.90;;;;;;4493440;26;20452;-64
2024/04/12 10:54:23;;;;;;;6.82;3.67;;;18.60;99.90;;;;;;4480838;26;20004;-64
2024/04/12 10:56:26;;;;;;;6.55;3.00;;;18.60;99.90;;;;;;4476801;26;20018;-64
2024/04/12 10:58:33;;;;;;;4.38;2.65;;;18.70;99.90;;;;;;4481133;26;20018;-64
2024/04/12 11:00:35;;;;;;;8.43;3.17;;;18.70;99.90;;;;;;4478624;26;20035;-64
2024/04/12 11:02:35;;;;;;;4.00;2.10;;;18.80;99.90;;;;;;4488049;26;20440;-65
2024/04/12 11:07:00;;;;;;;4.95;2.60;;;18.90;99.90;;;;;;4487780;26;20011;-63
2024/04/12 11:09:04;;;;;;;4.57;2.50;;;19.00;99.90;;;;;;4491837;26;20080;-64
2024/04/12 11:11:19;;;;;;;6.70;3.10;;;19.10;99.90;;;;;;4485653;26;20448;-64
2024/04/12 11:13:28;;;;;;;4.63;2.42;;;19.10;99.90;;;;;;4482918;26;20012;-64
2024/04/12 11:31:42;;;;;;;4.97;2.40;;;19.60;99.90;;;;;;4510798;26;20459;-64
2024/04/12 11:33:45;;;;;;;10.02;2.67;;;19.70;99.90;;;;;;4483696;26;20073;-65
2024/04/12 11:35:49;;;;;;;4.32;2.30;;;19.70;99.90;;;;;;4501167;26;20026;-65
2024/04/12 11:37:50;;;;;;;5.70;2.78;;;19.80;99.90;;;;;;4502756;26;20013;-60
2024/04/12 11:39:53;;;;;;;5.05;2.60;;;19.80;99.90;;;;;;4487659;26;20025;-64
2024/04/12 11:42:00;;;;;;;3.50;2.10;;;19.80;99.90;;;;;;4478654;26;20077;-64
2024/04/12 11:44:01;;;;;;;4.68;2.35;;;19.80;99.90;;;;;;4482110;26;20015;-64
2024/04/12 11:46:02;;;;;;;7.30;2.58;;;19.80;99.90;;;;;;4478546;26;20077;-65
2024/04/12 11:48:03;;;;;;;4.07;1.95;;;19.80;99.90;;;;;;4505066;26;20017;-65
2024/04/12 11:50:10;;;;;;;4.30;1.80;;;19.90;99.90;;;;;;4507547;26;20064;-65
2024/04/12 11:52:17;;;;;;;3.33;1.58;;;19.90;99.90;;;;;;4507002;26;20046;-65
2024/04/12 11:54:18;;;;;;;2.83;1.50;;;20.00;99.90;;;;;;4503963;26;20434;-65
2024/04/12 11:56:18;;;;;;;4.18;1.60;;;20.00;99.90;;;;;;4502976;26;20006;-65
2024/04/12 11:58:22;;;;;;;4.05;1.70;;;20.10;99.90;;;;;;4483056;26;20011;-65
2024/04/12 12:00:23;;;;;;;5.22;1.75;;;20.10;99.90;;;;;;4486407;26;20007;-64
2024/04/12 12:02:25;;;;;;;5.68;2.05;;;20.20;99.90;;;;;;4481815;26;20053;-64